sensor_id;sensor_type;location;lat;lon;timestamp;P1;durP1;ratioP1;P2;durP2;ratioP2
58681;SDS011;44460;40.162;18.294;2022-11-18T00:02:10;14.75;;;8.27;;
58681;SDS011;44460;40.162;18.294;2022-11-18T00:04:36;13.00;;;7.70;;
58681;SDS011;44460;40.162;18.294;2022-11-18T00:07:01;12.85;;;8.40;;
58681;SDS011;44460;40.162;18.294;2022-11-18T00:09:26;15.70;;;7.80;;
58681;SDS011;44460;40.162;18.294;2022-11-18T00:11:52;13.00;;;7.70;;
58681;SDS011;44460;40.162;18.294;2022-11-18T00:14:36;16.13;;;7.47;;
58681;SDS011;44460;40.162;18.294;2022-11-18T00:17:02;14.10;;;7.75;;
58681;SDS011;44460;40.162;18.294;2022-11-18T00:19:29;12.75;;;7.03;;
58681;SDS011;44460;40.162;18.294;2022-11-18T00:21:55;14.32;;;7.70;;
58681;SDS011;44460;40.162;18.294;2022-11-18T00:24:20;11.15;;;6.75;;
58681;SDS011;44460;40.162;18.294;2022-11-18T00:26:46;13.50;;;6.95;;
58681;SDS011;44460;40.162;18.294;2022-11-18T00:29:11;13.02;;;6.82;;
58681;SDS011;44460;40.162;18.294;2022-11-18T00:31:37;12.85;;;6.10;;
58681;SDS011;44460;40.162;18.294;2022-11-18T00:34:03;11.73;;;6.10;;
58681;SDS011;44460;40.162;18.294;2022-11-18T00:36:28;10.48;;;5.75;;
58681;SDS011;44460;40.162;18.294;2022-11-18T00:38:54;12.80;;;6.03;;
58681;SDS011;44460;40.162;18.294;2022-11-18T00:41:19;16.17;;;6.55;;
58681;SDS011;44460;40.162;18.294;2022-11-18T00:43:44;15.52;;;6.40;;
58681;SDS011;44460;40.162;18.294;2022-11-18T00:46:10;13.55;;;6.18;;
58681;SDS011;44460;40.162;18.294;2022-11-18T00:48:36;12.55;;;5.93;;
58681;SDS011;44460;40.162;18.294;2022-11-18T00:51:06;12.07;;;5.95;;
58681;SDS011;44460;40.162;18.294;2022-11-18T00:53:32;12.73;;;5.93;;
58681;SDS011;44460;40.162;18.294;2022-11-18T00:55:58;15.10;;;5.97;;
58681;SDS011;44460;40.162;18.294;2022-11-18T00:58:23;9.82;;;5.43;;
58681;SDS011;44460;40.162;18.294;2022-11-18T01:00:49;10.60;;;5.78;;
58681;SDS011;44460;40.162;18.294;2022-11-18T01:03:15;10.18;;;5.30;;
58681;SDS011;44460;40.162;18.294;2022-11-18T01:05:41;11.05;;;5.70;;
58681;SDS011;44460;40.162;18.294;2022-11-18T01:08:07;13.52;;;5.55;;
58681;SDS011;44460;40.162;18.294;2022-11-18T01:10:32;13.15;;;5.32;;
58681;SDS011;44460;40.162;18.294;2022-11-18T01:12:58;9.30;;;4.85;;
58681;SDS011;44460;40.162;18.294;2022-11-18T01:15:42;12.80;;;5.60;;
58681;SDS011;44460;40.162;18.294;2022-11-18T01:18:08;12.32;;;5.22;;
58681;SDS011;44460;40.162;18.294;2022-11-18T01:20:34;9.95;;;5.50;;
58681;SDS011;44460;40.162;18.294;2022-11-18T01:23:00;10.02;;;5.35;;
58681;SDS011;44460;40.162;18.294;2022-11-18T01:25:25;8.82;;;4.93;;
58681;SDS011;44460;40.162;18.294;2022-11-18T01:27:51;10.32;;;5.30;;
58681;SDS011;44460;40.162;18.294;2022-11-18T01:30:16;12.70;;;5.30;;
58681;SDS011;44460;40.162;18.294;2022-11-18T01:32:42;9.05;;;5.10;;
58681;SDS011;44460;40.162;18.294;2022-11-18T01:35:08;12.88;;;5.07;;
58681;SDS011;44460;40.162;18.294;2022-11-18T01:37:33;10.07;;;5.05;;
58681;SDS011;44460;40.162;18.294;2022-11-18T01:39:59;12.90;;;7.10;;
58681;SDS011;44460;40.162;18.294;2022-11-18T01:42:24;11.90;;;6.40;;
58681;SDS011;44460;40.162;18.294;2022-11-18T01:44:56;10.43;;;5.68;;
58681;SDS011;44460;40.162;18.294;2022-11-18T01:47:22;11.43;;;5.72;;
58681;SDS011;44460;40.162;18.294;2022-11-18T01:49:48;11.50;;;5.70;;
58681;SDS011;44460;40.162;18.294;2022-11-18T01:52:14;13.57;;;5.03;;
58681;SDS011;44460;40.162;18.294;2022-11-18T01:54:40;12.23;;;5.63;;
58681;SDS011;44460;40.162;18.294;2022-11-18T01:57:08;11.65;;;4.85;;
58681;SDS011;44460;40.162;18.294;2022-11-18T01:59:35;10.90;;;4.82;;
58681;SDS011;44460;40.162;18.294;2022-11-18T02:02:02;11.13;;;5.32;;
58681;SDS011;44460;40.162;18.294;2022-11-18T02:06:54;18.10;;;5.30;;
58681;SDS011;44460;40.162;18.294;2022-11-18T02:09:20;14.65;;;5.82;;
58681;SDS011;44460;40.162;18.294;2022-11-18T02:11:46;10.90;;;5.60;;
58681;SDS011;44460;40.162;18.294;2022-11-18T02:14:15;10.50;;;5.63;;
58681;SDS011;44460;40.162;18.294;2022-11-18T02:16:44;13.43;;;6.40;;
58681;SDS011;44460;40.162;18.294;2022-11-18T02:24:42;15.32;;;7.05;;
58681;SDS011;44460;40.162;18.294;2022-11-18T02:32:18;12.82;;;6.75;;
58681;SDS011;44460;40.162;18.294;2022-11-18T02:39:44;10.48;;;6.20;;
58681;SDS011;44460;40.162;18.294;2022-11-18T02:42:11;14.20;;;7.03;;
58681;SDS011;44460;40.162;18.294;2022-11-18T02:44:39;15.55;;;7.28;;
58681;SDS011;44460;40.162;18.294;2022-11-18T02:47:07;18.17;;;7.45;;
58681;SDS011;44460;40.162;18.294;2022-11-18T02:49:34;15.00;;;7.35;;
58681;SDS011;44460;40.162;18.294;2022-11-18T02:52:01;14.25;;;8.10;;
58681;SDS011;44460;40.162;18.294;2022-11-18T02:54:27;13.38;;;8.45;;
58681;SDS011;44460;40.162;18.294;2022-11-18T02:56:53;14.25;;;8.27;;
58681;SDS011;44460;40.162;18.294;2022-11-18T02:59:19;18.75;;;9.60;;
58681;SDS011;44460;40.162;18.294;2022-11-18T03:01:45;13.20;;;8.40;;
58681;SDS011;44460;40.162;18.294;2022-11-18T03:04:11;13.57;;;8.80;;
58681;SDS011;44460;40.162;18.294;2022-11-18T03:06:38;16.48;;;7.40;;
58681;SDS011;44460;40.162;18.294;2022-11-18T03:09:12;13.82;;;7.88;;
58681;SDS011;44460;40.162;18.294;2022-11-18T03:22:17;14.93;;;7.85;;
58681;SDS011;44460;40.162;18.294;2022-11-18T03:24:49;13.45;;;8.07;;
58681;SDS011;44460;40.162;18.294;2022-11-18T03:27:24;12.48;;;7.63;;
58681;SDS011;44460;40.162;18.294;2022-11-18T03:29:55;16.20;;;7.63;;
58681;SDS011;44460;40.162;18.294;2022-11-18T03:32:23;20.48;;;8.27;;
58681;SDS011;44460;40.162;18.294;2022-11-18T03:34:51;12.95;;;7.63;;
58681;SDS011;44460;40.162;18.294;2022-11-18T03:37:19;15.77;;;7.60;;
58681;SDS011;44460;40.162;18.294;2022-11-18T03:39:52;13.88;;;7.78;;
58681;SDS011;44460;40.162;18.294;2022-11-18T03:42:34;13.65;;;7.65;;
58681;SDS011;44460;40.162;18.294;2022-11-18T03:45:05;12.35;;;7.18;;
58681;SDS011;44460;40.162;18.294;2022-11-18T03:47:34;15.55;;;7.20;;
58681;SDS011;44460;40.162;18.294;2022-11-18T03:50:19;11.60;;;7.10;;
58681;SDS011;44460;40.162;18.294;2022-11-18T03:52:46;15.32;;;7.07;;
58681;SDS011;44460;40.162;18.294;2022-11-18T03:55:13;12.02;;;6.80;;
58681;SDS011;44460;40.162;18.294;2022-11-18T04:00:13;14.57;;;7.18;;
58681;SDS011;44460;40.162;18.294;2022-11-18T04:02:38;13.65;;;7.82;;
58681;SDS011;44460;40.162;18.294;2022-11-18T04:05:08;16.85;;;7.57;;
58681;SDS011;44460;40.162;18.294;2022-11-18T04:10:05;11.75;;;6.95;;
58681;SDS011;44460;40.162;18.294;2022-11-18T04:12:34;12.77;;;7.18;;
58681;SDS011;44460;40.162;18.294;2022-11-18T04:15:02;14.23;;;6.70;;
58681;SDS011;44460;40.162;18.294;2022-11-18T04:17:27;17.73;;;7.05;;
58681;SDS011;44460;40.162;18.294;2022-11-18T04:19:53;12.07;;;6.60;;
58681;SDS011;44460;40.162;18.294;2022-11-18T04:22:19;16.52;;;7.32;;
58681;SDS011;44460;40.162;18.294;2022-11-18T04:24:44;11.85;;;6.00;;
58681;SDS011;44460;40.162;18.294;2022-11-18T04:27:10;17.17;;;6.80;;
58681;SDS011;44460;40.162;18.294;2022-11-18T04:29:35;23.88;;;7.63;;
58681;SDS011;44460;40.162;18.294;2022-11-18T04:32:01;16.63;;;6.50;;
58681;SDS011;44460;40.162;18.294;2022-11-18T04:34:26;12.45;;;6.78;;
58681;SDS011;44460;40.162;18.294;2022-11-18T04:36:52;11.75;;;6.03;;
58681;SDS011;44460;40.162;18.294;2022-11-18T04:39:17;15.95;;;6.20;;
58681;SDS011;44460;40.162;18.294;2022-11-18T04:41:43;10.55;;;6.32;;
58681;SDS011;44460;40.162;18.294;2022-11-18T04:44:30;13.07;;;5.57;;
58681;SDS011;44460;40.162;18.294;2022-11-18T04:46:57;14.48;;;6.00;;
58681;SDS011;44460;40.162;18.294;2022-11-18T04:49:23;12.98;;;6.22;;
58681;SDS011;44460;40.162;18.294;2022-11-18T04:51:49;11.90;;;6.00;;
58681;SDS011;44460;40.162;18.294;2022-11-18T04:54:15;10.05;;;5.40;;
58681;SDS011;44460;40.162;18.294;2022-11-18T04:56:41;13.25;;;6.82;;
58681;SDS011;44460;40.162;18.294;2022-11-18T04:59:06;12.80;;;5.13;;
58681;SDS011;44460;40.162;18.294;2022-11-18T05:01:32;13.35;;;5.93;;
58681;SDS011;44460;40.162;18.294;2022-11-18T05:04:01;10.15;;;4.78;;
58681;SDS011;44460;40.162;18.294;2022-11-18T05:06:27;10.35;;;4.60;;
58681;SDS011;44460;40.162;18.294;2022-11-18T05:08:52;9.65;;;4.28;;
58681;SDS011;44460;40.162;18.294;2022-11-18T05:11:18;10.88;;;4.20;;
58681;SDS011;44460;40.162;18.294;2022-11-18T05:14:02;10.10;;;3.97;;
58681;SDS011;44460;40.162;18.294;2022-11-18T05:16:27;9.52;;;3.88;;
58681;SDS011;44460;40.162;18.294;2022-11-18T05:18:53;8.98;;;3.60;;
58681;SDS011;44460;40.162;18.294;2022-11-18T05:21:18;7.97;;;3.50;;
58681;SDS011;44460;40.162;18.294;2022-11-18T05:23:43;11.10;;;3.40;;
58681;SDS011;44460;40.162;18.294;2022-11-18T05:26:09;11.93;;;3.50;;
58681;SDS011;44460;40.162;18.294;2022-11-18T05:28:35;11.18;;;3.40;;
58681;SDS011;44460;40.162;18.294;2022-11-18T05:31:10;14.23;;;4.05;;
58681;SDS011;44460;40.162;18.294;2022-11-18T05:33:36;12.50;;;4.32;;
58681;SDS011;44460;40.162;18.294;2022-11-18T05:36:02;8.52;;;3.40;;
58681;SDS011;44460;40.162;18.294;2022-11-18T05:38:28;14.68;;;5.50;;
58681;SDS011;44460;40.162;18.294;2022-11-18T05:40:54;11.93;;;6.18;;
58681;SDS011;44460;40.162;18.294;2022-11-18T05:43:19;20.73;;;6.70;;
58681;SDS011;44460;40.162;18.294;2022-11-18T05:45:44;19.17;;;4.53;;
58681;SDS011;44460;40.162;18.294;2022-11-18T05:48:10;14.63;;;4.10;;
58681;SDS011;44460;40.162;18.294;2022-11-18T05:50:36;11.50;;;4.20;;
58681;SDS011;44460;40.162;18.294;2022-11-18T05:53:02;8.02;;;3.35;;
58681;SDS011;44460;40.162;18.294;2022-11-18T05:56:11;9.60;;;3.28;;
58681;SDS011;44460;40.162;18.294;2022-11-18T05:58:16;12.77;;;3.30;;
58681;SDS011;44460;40.162;18.294;2022-11-18T06:00:42;15.90;;;3.47;;
58681;SDS011;44460;40.162;18.294;2022-11-18T06:03:11;12.13;;;3.30;;
58681;SDS011;44460;40.162;18.294;2022-11-18T06:05:38;14.63;;;4.55;;
58681;SDS011;44460;40.162;18.294;2022-11-18T06:08:03;11.65;;;3.42;;
58681;SDS011;44460;40.162;18.294;2022-11-18T06:10:30;9.57;;;3.40;;
58681;SDS011;44460;40.162;18.294;2022-11-18T06:12:58;7.88;;;2.95;;
58681;SDS011;44460;40.162;18.294;2022-11-18T06:15:29;9.60;;;2.97;;
58681;SDS011;44460;40.162;18.294;2022-11-18T06:18:15;19.08;;;2.97;;
58681;SDS011;44460;40.162;18.294;2022-11-18T06:20:42;13.18;;;3.70;;
58681;SDS011;44460;40.162;18.294;2022-11-18T06:23:07;11.98;;;3.88;;
58681;SDS011;44460;40.162;18.294;2022-11-18T06:25:33;13.57;;;5.53;;
58681;SDS011;44460;40.162;18.294;2022-11-18T06:28:01;14.68;;;4.38;;
58681;SDS011;44460;40.162;18.294;2022-11-18T06:30:27;11.70;;;4.63;;
58681;SDS011;44460;40.162;18.294;2022-11-18T06:32:52;14.18;;;4.72;;
58681;SDS011;44460;40.162;18.294;2022-11-18T06:35:18;11.15;;;3.75;;
58681;SDS011;44460;40.162;18.294;2022-11-18T06:37:43;11.65;;;2.90;;
58681;SDS011;44460;40.162;18.294;2022-11-18T06:40:10;11.50;;;3.85;;
58681;SDS011;44460;40.162;18.294;2022-11-18T06:42:36;9.30;;;2.58;;
58681;SDS011;44460;40.162;18.294;2022-11-18T06:45:20;10.25;;;2.63;;
58681;SDS011;44460;40.162;18.294;2022-11-18T06:47:45;17.38;;;3.22;;
58681;SDS011;44460;40.162;18.294;2022-11-18T06:50:11;9.18;;;3.03;;
58681;SDS011;44460;40.162;18.294;2022-11-18T06:52:37;10.50;;;3.50;;
58681;SDS011;44460;40.162;18.294;2022-11-18T06:55:02;12.18;;;2.72;;
58681;SDS011;44460;40.162;18.294;2022-11-18T06:59:55;13.32;;;2.50;;
58681;SDS011;44460;40.162;18.294;2022-11-18T07:02:20;12.13;;;3.00;;
58681;SDS011;44460;40.162;18.294;2022-11-18T07:04:46;8.63;;;2.75;;
58681;SDS011;44460;40.162;18.294;2022-11-18T07:07:11;8.63;;;3.00;;
58681;SDS011;44460;40.162;18.294;2022-11-18T07:09:37;7.88;;;3.10;;
58681;SDS011;44460;40.162;18.294;2022-11-18T07:12:02;13.32;;;2.97;;
58681;SDS011;44460;40.162;18.294;2022-11-18T07:14:28;11.32;;;2.30;;
58681;SDS011;44460;40.162;18.294;2022-11-18T07:16:53;10.35;;;2.78;;
58681;SDS011;44460;40.162;18.294;2022-11-18T07:19:19;11.23;;;2.83;;
58681;SDS011;44460;40.162;18.294;2022-11-18T07:21:44;6.93;;;2.83;;
58681;SDS011;44460;40.162;18.294;2022-11-18T07:24:13;12.82;;;3.03;;
58681;SDS011;44460;40.162;18.294;2022-11-18T07:26:38;8.98;;;2.70;;
58681;SDS011;44460;40.162;18.294;2022-11-18T07:29:04;11.80;;;3.10;;
58681;SDS011;44460;40.162;18.294;2022-11-18T07:31:30;9.20;;;2.60;;
58681;SDS011;44460;40.162;18.294;2022-11-18T07:33:55;7.82;;;2.75;;
58681;SDS011;44460;40.162;18.294;2022-11-18T07:36:22;7.50;;;2.88;;
58681;SDS011;44460;40.162;18.294;2022-11-18T07:38:48;8.20;;;2.47;;
58681;SDS011;44460;40.162;18.294;2022-11-18T07:41:17;13.45;;;2.83;;
58681;SDS011;44460;40.162;18.294;2022-11-18T07:43:43;12.43;;;2.90;;
58681;SDS011;44460;40.162;18.294;2022-11-18T07:48:43;11.05;;;2.53;;
58681;SDS011;44460;40.162;18.294;2022-11-18T07:51:09;9.23;;;2.97;;
58681;SDS011;44460;40.162;18.294;2022-11-18T07:53:35;10.35;;;3.08;;
58681;SDS011;44460;40.162;18.294;2022-11-18T07:56:00;10.48;;;3.10;;
58681;SDS011;44460;40.162;18.294;2022-11-18T07:58:26;5.25;;;2.20;;
58681;SDS011;44460;40.162;18.294;2022-11-18T08:00:51;7.68;;;2.88;;
58681;SDS011;44460;40.162;18.294;2022-11-18T08:03:17;7.22;;;2.50;;
58681;SDS011;44460;40.162;18.294;2022-11-18T08:05:42;11.10;;;2.30;;
58681;SDS011;44460;40.162;18.294;2022-11-18T08:08:08;6.03;;;1.88;;
58681;SDS011;44460;40.162;18.294;2022-11-18T08:10:35;9.02;;;2.22;;
58681;SDS011;44460;40.162;18.294;2022-11-18T08:13:00;10.00;;;2.58;;
58681;SDS011;44460;40.162;18.294;2022-11-18T08:15:25;11.90;;;2.90;;
58681;SDS011;44460;40.162;18.294;2022-11-18T08:17:51;11.25;;;2.38;;
58681;SDS011;44460;40.162;18.294;2022-11-18T08:20:16;7.97;;;2.63;;
58681;SDS011;44460;40.162;18.294;2022-11-18T08:22:42;12.32;;;3.25;;
58681;SDS011;44460;40.162;18.294;2022-11-18T08:25:07;14.45;;;3.03;;
58681;SDS011;44460;40.162;18.294;2022-11-18T08:27:33;22.73;;;3.33;;
58681;SDS011;44460;40.162;18.294;2022-11-18T08:29:59;13.73;;;3.58;;
58681;SDS011;44460;40.162;18.294;2022-11-18T08:32:24;14.77;;;3.63;;
58681;SDS011;44460;40.162;18.294;2022-11-18T08:34:50;10.48;;;3.50;;
58681;SDS011;44460;40.162;18.294;2022-11-18T08:37:16;14.68;;;3.67;;
58681;SDS011;44460;40.162;18.294;2022-11-18T08:39:41;17.52;;;4.10;;
58681;SDS011;44460;40.162;18.294;2022-11-18T08:42:07;10.85;;;3.90;;
58681;SDS011;44460;40.162;18.294;2022-11-18T08:44:33;19.98;;;4.10;;
58681;SDS011;44460;40.162;18.294;2022-11-18T08:46:59;13.70;;;3.58;;
58681;SDS011;44460;40.162;18.294;2022-11-18T08:49:24;20.50;;;3.80;;
58681;SDS011;44460;40.162;18.294;2022-11-18T08:51:50;10.40;;;3.65;;
58681;SDS011;44460;40.162;18.294;2022-11-18T08:54:15;12.40;;;2.90;;
58681;SDS011;44460;40.162;18.294;2022-11-18T08:56:40;10.93;;;3.65;;
58681;SDS011;44460;40.162;18.294;2022-11-18T08:59:06;12.90;;;3.30;;
58681;SDS011;44460;40.162;18.294;2022-11-18T09:01:34;11.47;;;3.23;;
58681;SDS011;44460;40.162;18.294;2022-11-18T09:04:00;13.80;;;3.28;;
58681;SDS011;44460;40.162;18.294;2022-11-18T09:06:25;17.17;;;3.38;;
58681;SDS011;44460;40.162;18.294;2022-11-18T09:08:51;13.13;;;2.65;;
58681;SDS011;44460;40.162;18.294;2022-11-18T09:11:18;21.70;;;3.30;;
58681;SDS011;44460;40.162;18.294;2022-11-18T09:13:44;11.20;;;3.33;;
58681;SDS011;44460;40.162;18.294;2022-11-18T09:16:10;17.08;;;3.40;;
58681;SDS011;44460;40.162;18.294;2022-11-18T09:18:35;14.93;;;3.65;;
58681;SDS011;44460;40.162;18.294;2022-11-18T09:21:10;17.00;;;3.75;;
58681;SDS011;44460;40.162;18.294;2022-11-18T09:23:36;21.80;;;3.50;;
58681;SDS011;44460;40.162;18.294;2022-11-18T09:26:05;13.30;;;3.50;;
58681;SDS011;44460;40.162;18.294;2022-11-18T09:28:31;18.48;;;4.40;;
58681;SDS011;44460;40.162;18.294;2022-11-18T09:30:57;16.90;;;3.50;;
58681;SDS011;44460;40.162;18.294;2022-11-18T09:33:23;11.80;;;3.38;;
58681;SDS011;44460;40.162;18.294;2022-11-18T09:35:48;11.52;;;2.85;;
58681;SDS011;44460;40.162;18.294;2022-11-18T09:38:14;14.10;;;3.80;;
58681;SDS011;44460;40.162;18.294;2022-11-18T09:43:27;19.27;;;3.15;;
58681;SDS011;44460;40.162;18.294;2022-11-18T09:45:58;13.98;;;2.67;;
58681;SDS011;44460;40.162;18.294;2022-11-18T09:48:26;13.63;;;3.85;;
58681;SDS011;44460;40.162;18.294;2022-11-18T09:51:11;8.80;;;2.80;;
58681;SDS011;44460;40.162;18.294;2022-11-18T09:53:38;14.88;;;2.78;;
58681;SDS011;44460;40.162;18.294;2022-11-18T09:56:08;14.80;;;2.92;;
58681;SDS011;44460;40.162;18.294;2022-11-18T09:58:36;18.75;;;2.65;;
58681;SDS011;44460;40.162;18.294;2022-11-18T10:01:02;12.10;;;2.80;;
58681;SDS011;44460;40.162;18.294;2022-11-18T10:03:29;13.68;;;2.20;;
58681;SDS011;44460;40.162;18.294;2022-11-18T10:05:57;12.30;;;2.53;;
58681;SDS011;44460;40.162;18.294;2022-11-18T10:11:37;13.02;;;2.38;;
58681;SDS011;44460;40.162;18.294;2022-11-18T10:16:42;12.85;;;2.60;;
58681;SDS011;44460;40.162;18.294;2022-11-18T10:19:30;16.50;;;2.75;;
58681;SDS011;44460;40.162;18.294;2022-11-18T10:24:24;13.45;;;2.80;;
58681;SDS011;44460;40.162;18.294;2022-11-18T10:26:56;15.70;;;3.17;;
58681;SDS011;44460;40.162;18.294;2022-11-18T10:29:21;13.32;;;3.50;;
58681;SDS011;44460;40.162;18.294;2022-11-18T10:32:20;21.85;;;3.85;;
58681;SDS011;44460;40.162;18.294;2022-11-18T10:34:49;17.50;;;3.15;;
58681;SDS011;44460;40.162;18.294;2022-11-18T10:39:53;17.77;;;3.35;;
58681;SDS011;44460;40.162;18.294;2022-11-18T10:42:40;19.63;;;3.67;;
58681;SDS011;44460;40.162;18.294;2022-11-18T10:47:40;11.13;;;2.80;;
58681;SDS011;44460;40.162;18.294;2022-11-18T10:50:25;13.43;;;2.72;;
58681;SDS011;44460;40.162;18.294;2022-11-18T10:52:51;16.40;;;4.15;;
58681;SDS011;44460;40.162;18.294;2022-11-18T10:55:18;18.83;;;3.20;;
58681;SDS011;44460;40.162;18.294;2022-11-18T10:57:45;12.90;;;2.80;;
58681;SDS011;44460;40.162;18.294;2022-11-18T11:00:32;13.65;;;3.10;;
58681;SDS011;44460;40.162;18.294;2022-11-18T11:02:56;14.50;;;2.80;;
58681;SDS011;44460;40.162;18.294;2022-11-18T11:05:22;14.90;;;3.15;;
58681;SDS011;44460;40.162;18.294;2022-11-18T11:08:01;12.32;;;3.00;;
58681;SDS011;44460;40.162;18.294;2022-11-18T11:10:27;12.50;;;3.50;;
58681;SDS011;44460;40.162;18.294;2022-11-18T11:12:54;14.15;;;2.75;;
58681;SDS011;44460;40.162;18.294;2022-11-18T11:15:23;8.80;;;2.88;;
58681;SDS011;44460;40.162;18.294;2022-11-18T11:17:51;15.27;;;2.75;;
58681;SDS011;44460;40.162;18.294;2022-11-18T11:20:38;16.98;;;2.67;;
58681;SDS011;44460;40.162;18.294;2022-11-18T11:23:10;19.38;;;3.30;;
58681;SDS011;44460;40.162;18.294;2022-11-18T11:25:40;13.02;;;3.08;;
58681;SDS011;44460;40.162;18.294;2022-11-18T11:30:45;19.50;;;3.47;;
58681;SDS011;44460;40.162;18.294;2022-11-18T11:33:22;13.90;;;3.40;;
58681;SDS011;44460;40.162;18.294;2022-11-18T11:38:32;23.08;;;3.53;;
58681;SDS011;44460;40.162;18.294;2022-11-18T11:43:33;13.50;;;3.33;;
58681;SDS011;44460;40.162;18.294;2022-11-18T11:51:21;18.33;;;3.80;;
58681;SDS011;44460;40.162;18.294;2022-11-18T11:53:58;18.00;;;3.53;;
58681;SDS011;44460;40.162;18.294;2022-11-18T11:56:31;18.55;;;4.07;;
58681;SDS011;44460;40.162;18.294;2022-11-18T11:59:11;18.80;;;3.35;;
58681;SDS011;44460;40.162;18.294;2022-11-18T12:01:48;16.73;;;3.45;;
58681;SDS011;44460;40.162;18.294;2022-11-18T12:07:01;14.32;;;3.10;;
58681;SDS011;44460;40.162;18.294;2022-11-18T12:19:26;13.93;;;3.70;;
58681;SDS011;44460;40.162;18.294;2022-11-18T12:21:53;14.75;;;3.03;;
58681;SDS011;44460;40.162;18.294;2022-11-18T12:26:45;25.33;;;10.88;;
58681;SDS011;44460;40.162;18.294;2022-11-18T12:31:42;23.35;;;4.53;;
58681;SDS011;44460;40.162;18.294;2022-11-18T12:35:20;16.27;;;3.90;;
58681;SDS011;44460;40.162;18.294;2022-11-18T12:39:46;15.63;;;3.40;;
58681;SDS011;44460;40.162;18.294;2022-11-18T12:50:52;17.88;;;6.18;;
58681;SDS011;44460;40.162;18.294;2022-11-18T12:55:52;19.17;;;4.00;;
58681;SDS011;44460;40.162;18.294;2022-11-18T12:58:19;15.30;;;3.75;;
58681;SDS011;44460;40.162;18.294;2022-11-18T13:00:46;14.15;;;3.10;;
58681;SDS011;44460;40.162;18.294;2022-11-18T13:03:21;10.60;;;2.63;;
58681;SDS011;44460;40.162;18.294;2022-11-18T13:05:48;16.25;;;2.95;;
58681;SDS011;44460;40.162;18.294;2022-11-18T13:08:14;13.25;;;3.00;;
58681;SDS011;44460;40.162;18.294;2022-11-18T13:10:51;12.95;;;3.72;;
58681;SDS011;44460;40.162;18.294;2022-11-18T13:13:37;13.50;;;3.15;;
58681;SDS011;44460;40.162;18.294;2022-11-18T13:16:10;18.33;;;3.75;;
58681;SDS011;44460;40.162;18.294;2022-11-18T13:18:57;17.60;;;4.70;;
58681;SDS011;44460;40.162;18.294;2022-11-18T13:21:26;21.65;;;5.03;;
58681;SDS011;44460;40.162;18.294;2022-11-18T13:24:14;16.27;;;3.70;;
58681;SDS011;44460;40.162;18.294;2022-11-18T13:26:41;20.08;;;4.05;;
58681;SDS011;44460;40.162;18.294;2022-11-18T13:36:43;22.58;;;3.72;;
58681;SDS011;44460;40.162;18.294;2022-11-18T13:39:17;17.10;;;4.50;;
58681;SDS011;44460;40.162;18.294;2022-11-18T13:41:44;17.08;;;3.97;;
58681;SDS011;44460;40.162;18.294;2022-11-18T13:46:35;144.63;;;12.77;;
58681;SDS011;44460;40.162;18.294;2022-11-18T13:49:01;18.10;;;4.00;;
58681;SDS011;44460;40.162;18.294;2022-11-18T13:51:27;18.23;;;3.50;;
58681;SDS011;44460;40.162;18.294;2022-11-18T13:53:53;17.83;;;3.20;;
58681;SDS011;44460;40.162;18.294;2022-11-18T13:56:22;15.52;;;3.72;;
58681;SDS011;44460;40.162;18.294;2022-11-18T14:01:29;17.13;;;3.88;;
58681;SDS011;44460;40.162;18.294;2022-11-18T14:04:05;18.05;;;3.78;;
58681;SDS011;44460;40.162;18.294;2022-11-18T14:06:32;17.33;;;4.15;;
58681;SDS011;44460;40.162;18.294;2022-11-18T14:09:05;21.38;;;5.03;;
58681;SDS011;44460;40.162;18.294;2022-11-18T14:11:36;22.05;;;4.22;;
58681;SDS011;44460;40.162;18.294;2022-11-18T14:14:01;25.58;;;6.97;;
58681;SDS011;44460;40.162;18.294;2022-11-18T14:16:39;16.70;;;4.70;;
58681;SDS011;44460;40.162;18.294;2022-11-18T14:19:05;18.40;;;6.45;;
58681;SDS011;44460;40.162;18.294;2022-11-18T14:21:32;22.50;;;6.38;;
58681;SDS011;44460;40.162;18.294;2022-11-18T14:23:58;20.55;;;5.15;;
58681;SDS011;44460;40.162;18.294;2022-11-18T14:26:31;21.65;;;5.38;;
58681;SDS011;44460;40.162;18.294;2022-11-18T14:28:58;20.73;;;5.32;;
58681;SDS011;44460;40.162;18.294;2022-11-18T14:31:25;20.00;;;5.47;;
58681;SDS011;44460;40.162;18.294;2022-11-18T14:34:03;22.17;;;5.60;;
58681;SDS011;44460;40.162;18.294;2022-11-18T14:36:30;23.77;;;8.32;;
58681;SDS011;44460;40.162;18.294;2022-11-18T14:38:55;26.65;;;6.90;;
58681;SDS011;44460;40.162;18.294;2022-11-18T14:41:21;20.40;;;5.82;;
58681;SDS011;44460;40.162;18.294;2022-11-18T14:44:06;19.70;;;6.00;;
58681;SDS011;44460;40.162;18.294;2022-11-18T14:46:32;23.65;;;5.93;;
58681;SDS011;44460;40.162;18.294;2022-11-18T14:49:00;28.13;;;7.45;;
58681;SDS011;44460;40.162;18.294;2022-11-18T14:51:26;27.38;;;6.10;;
58681;SDS011;44460;40.162;18.294;2022-11-18T14:53:51;18.95;;;5.43;;
58681;SDS011;44460;40.162;18.294;2022-11-18T14:56:20;16.63;;;4.80;;
58681;SDS011;44460;40.162;18.294;2022-11-18T14:58:46;26.60;;;6.07;;
58681;SDS011;44460;40.162;18.294;2022-11-18T15:01:12;20.00;;;5.30;;
58681;SDS011;44460;40.162;18.294;2022-11-18T15:03:38;22.52;;;6.32;;
58681;SDS011;44460;40.162;18.294;2022-11-18T15:06:05;23.52;;;6.82;;
58681;SDS011;44460;40.162;18.294;2022-11-18T15:08:35;25.88;;;6.22;;
58681;SDS011;44460;40.162;18.294;2022-11-18T15:11:01;23.55;;;8.15;;
58681;SDS011;44460;40.162;18.294;2022-11-18T15:13:26;25.50;;;7.35;;
58681;SDS011;44460;40.162;18.294;2022-11-18T15:15:52;30.95;;;8.35;;
58681;SDS011;44460;40.162;18.294;2022-11-18T15:18:17;29.17;;;9.88;;
58681;SDS011;44460;40.162;18.294;2022-11-18T15:20:42;29.95;;;8.80;;
58681;SDS011;44460;40.162;18.294;2022-11-18T15:23:08;30.48;;;10.75;;
58681;SDS011;44460;40.162;18.294;2022-11-18T15:25:33;39.45;;;9.25;;
58681;SDS011;44460;40.162;18.294;2022-11-18T15:27:59;36.13;;;10.82;;
58681;SDS011;44460;40.162;18.294;2022-11-18T15:30:25;20.83;;;6.57;;
58681;SDS011;44460;40.162;18.294;2022-11-18T15:32:50;35.00;;;7.05;;
58681;SDS011;44460;40.162;18.294;2022-11-18T15:35:16;24.15;;;6.18;;
58681;SDS011;44460;40.162;18.294;2022-11-18T15:37:41;23.70;;;6.85;;
58681;SDS011;44460;40.162;18.294;2022-11-18T15:40:07;25.17;;;6.57;;
58681;SDS011;44460;40.162;18.294;2022-11-18T15:42:32;35.60;;;12.07;;
58681;SDS011;44460;40.162;18.294;2022-11-18T15:44:58;30.70;;;9.52;;
58681;SDS011;44460;40.162;18.294;2022-11-18T15:47:23;29.55;;;6.40;;
58681;SDS011;44460;40.162;18.294;2022-11-18T15:49:49;25.02;;;6.97;;
58681;SDS011;44460;40.162;18.294;2022-11-18T15:52:14;30.20;;;7.57;;
58681;SDS011;44460;40.162;18.294;2022-11-18T15:54:41;31.02;;;7.95;;
58681;SDS011;44460;40.162;18.294;2022-11-18T15:57:06;30.40;;;7.50;;
58681;SDS011;44460;40.162;18.294;2022-11-18T15:59:32;30.15;;;7.85;;
58681;SDS011;44460;40.162;18.294;2022-11-18T16:01:57;29.40;;;7.10;;
58681;SDS011;44460;40.162;18.294;2022-11-18T16:04:23;41.50;;;14.55;;
58681;SDS011;44460;40.162;18.294;2022-11-18T16:06:49;41.40;;;15.18;;
58681;SDS011;44460;40.162;18.294;2022-11-18T16:09:14;31.08;;;12.38;;
58681;SDS011;44460;40.162;18.294;2022-11-18T16:11:41;37.03;;;11.15;;
58681;SDS011;44460;40.162;18.294;2022-11-18T16:14:25;36.13;;;13.23;;
58681;SDS011;44460;40.162;18.294;2022-11-18T16:16:51;36.75;;;8.73;;
58681;SDS011;44460;40.162;18.294;2022-11-18T16:19:19;42.70;;;10.52;;
58681;SDS011;44460;40.162;18.294;2022-11-18T16:21:46;36.30;;;10.07;;